Time;durP1;ratioP1;P1;durP2;ratioP2;P2;SDS_P1;SDS_P2;PMS_P1;PMS_P2;Temp;Humidity;BMP_temperature;BMP_pressure;BME280_temperature;BME280_humidity;BME280_pressure;Samples;Min_cycle;Max_cycle;Signal;HPM_P1;HPM_P2
2023/04/29 00:02:18;;;;;;;2.78;1.80;;;14.60;99.90;;;17.21;61.21;97280.81;5031597;28;20396;-36
2023/04/29 00:04:46;;;;;;;3.70;2.00;;;14.60;99.90;;;17.19;61.29;97280.19;5031561;28;20052;-36
2023/04/29 00:07:14;;;;;;;1.98;1.80;;;14.60;99.90;;;17.12;61.50;97267.59;5031540;28;20413;-36
2023/04/29 00:09:42;;;;;;;3.53;2.05;;;14.50;99.90;;;17.13;61.23;97273.78;5029921;28;20056;-36
2023/04/29 00:12:10;;;;;;;2.75;1.90;;;14.60;99.90;;;17.16;61.32;97270.69;5031713;28;20037;-36
2023/04/29 00:14:37;;;;;;;2.85;1.70;;;14.50;99.90;;;17.18;61.44;97273.19;5031609;28;20046;-36
2023/04/29 00:17:05;;;;;;;2.42;1.90;;;14.60;99.90;;;17.16;61.02;97267.16;5030862;28;20041;-36
2023/04/29 00:19:33;;;;;;;5.32;2.03;;;14.50;99.90;;;17.13;61.18;97268.41;5031251;28;20067;-36
2023/04/29 00:22:00;;;;;;;2.40;1.83;;;14.50;99.90;;;17.15;61.30;97266.34;5031238;28;20049;-36
2023/04/29 00:24:28;;;;;;;2.00;1.60;;;14.50;99.90;;;17.18;61.13;97263.22;5031035;28;20052;-37
2023/04/29 00:26:56;;;;;;;2.55;2.28;;;14.50;99.90;;;17.14;60.98;97270.06;5030812;28;20045;-37
2023/04/29 00:29:23;;;;;;;2.95;2.13;;;14.40;99.90;;;17.15;61.12;97266.34;5031266;28;20041;-37
2023/04/29 00:31:51;;;;;;;3.22;1.80;;;14.50;99.90;;;17.17;61.05;97271.50;5029275;28;20053;-37
2023/04/29 00:34:19;;;;;;;2.20;2.00;;;14.50;99.90;;;17.13;60.86;97271.09;5031013;28;20040;-37
2023/04/29 00:36:46;;;;;;;2.22;1.92;;;14.40;99.90;;;17.08;61.09;97266.38;5030771;28;20064;-37
2023/04/29 00:39:14;;;;;;;2.28;1.83;;;14.40;99.90;;;17.05;61.11;97269.47;5029771;28;20497;-37
2023/04/29 00:41:42;;;;;;;3.97;2.13;;;14.40;99.90;;;17.07;61.05;97272.78;5031120;28;20148;-37
2023/04/29 00:44:10;;;;;;;2.70;1.80;;;14.40;99.90;;;17.06;61.01;97262.22;5031028;28;20220;-37
2023/04/29 00:46:37;;;;;;;2.65;2.03;;;14.30;99.90;;;17.04;61.21;97280.44;5029233;28;20296;-37
2023/04/29 00:49:07;;;;;;;2.88;1.80;;;14.30;99.90;;;17.04;61.05;97272.38;5029742;28;20041;-37
2023/04/29 00:51:36;;;;;;;2.75;2.20;;;14.30;99.90;;;17.03;60.91;97276.09;5013784;28;20052;-37
2023/04/29 00:54:04;;;;;;;2.55;2.05;;;14.30;99.90;;;17.00;61.16;97268.44;5029527;28;20432;-37
2023/04/29 00:56:36;;;;;;;5.00;2.13;;;14.20;99.90;;;17.02;61.13;97277.13;5013093;28;20049;-37
2023/04/29 00:59:04;;;;;;;3.10;2.22;;;14.30;99.90;;;17.01;61.12;97280.88;5020049;28;20061;-37
2023/04/29 01:01:32;;;;;;;2.55;2.15;;;14.30;99.90;;;16.95;61.31;97279.03;5029918;28;20041;-37
2023/04/29 01:04:00;;;;;;;3.22;2.35;;;14.30;99.90;;;16.93;61.21;97281.94;5030801;28;20053;-37
2023/04/29 01:06:58;;;;;;;2.28;2.05;;;14.20;99.90;;;16.85;61.37;97277.59;5024955;28;20051;-37
2023/04/29 01:09:59;;;;;;;2.42;1.98;;;14.20;99.90;;;16.84;61.42;97275.94;5027932;28;20045;-37
2023/04/29 01:12:42;;;;;;;2.75;2.38;;;14.20;99.90;;;16.84;61.29;97277.81;5011565;28;20045;-37
2023/04/29 01:15:26;;;;;;;3.13;2.28;;;14.20;99.90;;;16.85;61.38;97285.66;5033025;28;20056;-37
2023/04/29 01:18:10;;;;;;;5.13;2.30;;;14.20;99.90;;;16.86;61.17;97289.16;5034126;28;20046;-37
2023/04/29 01:20:39;;;;;;;2.63;2.30;;;14.20;99.90;;;16.82;61.27;97285.25;5033432;28;20425;-37
2023/04/29 01:23:07;;;;;;;2.90;2.30;;;14.10;99.90;;;16.80;61.17;97280.03;5034241;28;20413;-37
2023/04/29 01:25:37;;;;;;;2.53;2.25;;;14.10;99.90;;;16.80;61.42;97281.91;5033022;28;20493;-37
2023/04/29 01:29:14;;;;;;;2.95;2.45;;;14.00;99.90;;;16.81;61.05;97287.09;5030258;28;20048;-37
2023/04/29 01:32:07;;;;;;;3.08;2.55;;;14.00;99.90;;;16.81;60.96;97281.72;5041253;28;20057;-37
2023/04/29 01:35:38;;;;;;;2.92;2.30;;;14.00;99.90;;;16.80;61.14;97289.97;5029977;28;20049;-37
2023/04/29 01:38:14;;;;;;;2.72;2.47;;;14.00;99.90;;;16.81;61.20;97295.16;5023432;28;20053;-37
2023/04/29 01:41:01;;;;;;;3.83;2.80;;;14.00;99.90;;;16.76;61.30;97291.44;5033019;28;20053;-37
2023/04/29 01:43:33;;;;;;;3.50;2.17;;;14.00;99.90;;;16.73;61.28;97287.31;5011856;28;20042;-37
2023/04/29 01:46:10;;;;;;;4.78;2.60;;;14.00;99.90;;;16.71;61.26;97284.84;5017512;28;20500;-36
2023/04/29 01:48:39;;;;;;;5.78;2.20;;;14.00;99.90;;;16.68;61.14;97285.22;5032674;28;20058;-37
2023/04/29 01:51:07;;;;;;;3.45;2.17;;;13.90;99.90;;;16.69;61.27;97289.59;5000221;28;20524;-37
2023/04/29 01:53:34;;;;;;;3.05;2.13;;;13.90;99.90;;;16.69;61.22;97278.00;5032413;28;20060;-37
2023/04/29 01:56:02;;;;;;;3.10;2.63;;;13.90;99.90;;;16.64;61.17;97284.00;5033720;28;20049;-37
2023/04/29 01:58:43;;;;;;;3.95;2.65;;;13.90;99.90;;;16.67;61.09;97280.91;5017910;28;20140;-36
2023/04/29 02:01:40;;;;;;;5.32;2.38;;;13.90;99.90;;;16.67;60.97;97285.44;5042798;28;20072;-37
2023/04/29 02:04:07;;;;;;;3.67;2.20;;;13.90;99.90;;;16.59;61.13;97283.78;5031470;28;20046;-37
2023/04/29 02:06:36;;;;;;;3.42;2.72;;;14.00;99.90;;;16.63;60.90;97282.34;5031127;28;20057;-37
2023/04/29 02:09:05;;;;;;;2.97;1.92;;;14.00;99.90;;;16.59;60.64;97283.78;5031957;28;20061;-37
2023/04/29 02:11:34;;;;;;;2.60;2.08;;;13.90;99.90;;;16.64;60.59;97277.81;5032895;28;20046;-37
2023/04/29 02:14:01;;;;;;;2.40;2.00;;;13.90;99.90;;;16.64;60.46;97281.31;5032203;28;20417;-37
2023/04/29 02:16:29;;;;;;;4.05;2.63;;;13.90;99.90;;;16.65;60.46;97282.97;5030713;28;20045;-36
2023/04/29 02:19:00;;;;;;;3.42;2.33;;;14.00;99.90;;;16.65;60.67;97287.50;5032142;28;20077;-37
2023/04/29 02:21:28;;;;;;;3.22;2.88;;;13.90;99.90;;;16.64;60.31;97284.00;5033282;28;20046;-37
2023/04/29 02:23:55;;;;;;;3.13;2.22;;;13.90;99.90;;;16.63;60.53;97286.91;5032896;28;20060;-37
2023/04/29 02:26:24;;;;;;;4.13;2.63;;;13.90;99.90;;;16.63;60.61;97287.72;5031610;28;20501;-37
2023/04/29 02:28:56;;;;;;;3.55;2.50;;;13.90;99.90;;;16.60;60.71;97287.31;5032148;28;20049;-37
2023/04/29 02:31:23;;;;;;;3.13;2.60;;;13.90;99.90;;;16.54;60.71;97295.19;5031697;28;20052;-37
2023/04/29 02:33:53;;;;;;;3.78;3.25;;;13.80;99.90;;;16.57;60.36;97302.00;5031604;28;20046;-37
2023/04/29 02:36:20;;;;;;;3.33;2.45;;;13.80;99.90;;;16.59;60.26;97289.16;5032866;28;20041;-37
2023/04/29 02:38:54;;;;;;;3.95;2.42;;;13.80;99.90;;;16.57;60.27;97293.91;5031862;28;20428;-37
2023/04/29 02:41:21;;;;;;;2.65;2.28;;;13.80;99.90;;;16.58;60.12;97292.91;5033073;28;20045;-37
2023/04/29 02:43:49;;;;;;;2.58;2.38;;;13.80;99.90;;;16.56;60.01;97292.28;5033148;28;20076;-37
2023/04/29 02:46:17;;;;;;;3.90;2.80;;;13.70;99.90;;;16.58;59.84;97292.09;5031269;28;20549;-37
2023/04/29 02:48:45;;;;;;;2.53;1.92;;;13.70;99.90;;;16.56;59.67;97297.66;5031999;28;20056;-37
2023/04/29 02:51:14;;;;;;;2.72;2.30;;;13.80;99.90;;;16.56;59.76;97294.16;5031542;28;20089;-37
2023/04/29 02:53:41;;;;;;;3.78;2.53;;;13.80;99.90;;;16.54;59.42;97297.03;5033615;28;20509;-37
2023/04/29 02:56:09;;;;;;;2.60;2.30;;;13.70;99.90;;;16.49;59.54;97300.34;5031001;28;20060;-37
2023/04/29 02:58:36;;;;;;;3.35;2.38;;;13.70;99.90;;;16.50;59.33;97301.19;5031712;28;20053;-37
2023/04/29 03:01:04;;;;;;;3.38;2.78;;;13.70;99.90;;;16.36;59.71;97294.97;5031523;28;20061;-37
2023/04/29 03:03:31;;;;;;;3.10;2.63;;;13.60;99.90;;;16.36;59.57;97299.50;5031321;28;20045;-37
2023/04/29 03:05:59;;;;;;;3.08;2.53;;;13.60;99.90;;;16.26;59.70;97302.59;5030158;28;20208;-37
2023/04/29 03:08:27;;;;;;;6.85;2.47;;;13.60;99.90;;;16.33;59.55;97298.91;5031354;28;20494;-37
2023/04/29 03:10:55;;;;;;;8.93;2.67;;;13.60;99.90;;;16.37;59.38;97301.19;5032418;28;20049;-37
2023/04/29 03:13:23;;;;;;;3.20;2.70;;;13.50;99.90;;;16.34;59.25;97299.72;5031598;28;20033;-37
2023/04/29 03:15:51;;;;;;;2.90;2.38;;;13.60;99.90;;;16.34;59.10;97299.72;5030972;28;20050;-37
2023/04/29 03:18:18;;;;;;;2.95;2.20;;;13.60;99.90;;;16.34;59.14;97305.09;5030869;28;20048;-37
2023/04/29 03:20:47;;;;;;;3.20;2.50;;;13.50;99.90;;;16.30;58.78;97302.00;5031121;28;20060;-37
2023/04/29 03:23:15;;;;;;;3.47;2.47;;;13.50;99.90;;;16.27;59.24;97305.09;5032189;28;20052;-37
2023/04/29 03:25:43;;;;;;;3.80;3.03;;;13.50;99.90;;;16.26;59.40;97307.97;5030588;28;20076;-37
2023/04/29 03:28:10;;;;;;;2.78;2.50;;;13.50;99.90;;;16.24;59.29;97308.19;5030651;28;20045;-37
2023/04/29 03:30:38;;;;;;;5.00;2.63;;;13.40;99.90;;;16.19;59.24;97305.31;5030662;28;20531;-37
2023/04/29 03:33:06;;;;;;;5.00;3.15;;;13.40;99.90;;;16.19;59.55;97294.56;5032039;28;20532;-37
2023/04/29 03:35:33;;;;;;;4.38;2.80;;;13.40;99.90;;;16.15;59.50;97293.31;5031306;28;20045;-37
2023/04/29 03:38:21;;;;;;;5.18;3.53;;;13.40;99.90;;;16.11;59.55;97300.94;5009641;28;20049;-37
2023/04/29 03:40:49;;;;;;;5.22;3.40;;;13.30;99.90;;;15.98;60.39;97294.75;5031253;28;20072;-37
2023/04/29 03:43:17;;;;;;;4.53;3.40;;;13.30;99.90;;;15.93;60.56;97296.16;5030525;28;20501;-37
2023/04/29 03:45:45;;;;;;;5.47;3.92;;;13.20;99.90;;;15.91;60.59;97297.41;5030262;28;20045;-37
2023/04/29 03:48:17;;;;;;;4.35;3.65;;;13.20;99.90;;;15.96;60.36;97292.25;5030181;28;20041;-37
2023/04/29 03:50:44;;;;;;;5.03;3.75;;;13.20;99.90;;;15.93;60.27;97298.03;5030296;28;20052;-37
2023/04/29 03:53:12;;;;;;;4.68;3.95;;;13.20;99.90;;;15.90;60.43;97298.44;5030525;28;20049;-37
2023/04/29 03:55:40;;;;;;;5.30;4.15;;;13.20;99.90;;;15.90;60.56;97301.94;5030437;28;20239;-37
2023/04/29 03:58:10;;;;;;;5.05;4.10;;;13.20;99.90;;;15.92;60.33;97304.44;5030256;28;20120;-37
2023/04/29 04:00:37;;;;;;;4.32;3.90;;;13.10;99.90;;;15.88;60.23;97304.00;5028591;28;20057;-36
2023/04/29 04:03:10;;;;;;;4.80;4.30;;;13.10;99.90;;;15.85;60.25;97306.28;5029967;28;20516;-37
2023/04/29 04:05:38;;;;;;;4.55;4.15;;;13.00;99.90;;;15.83;60.35;97303.78;5014002;28;20519;-37
2023/04/29 04:08:12;;;;;;;4.75;4.05;;;13.00;99.90;;;15.82;60.26;97314.72;5029969;28;20046;-37
2023/04/29 04:10:50;;;;;;;6.10;4.88;;;13.00;99.90;;;15.82;60.48;97312.03;5030597;28;20049;-36
2023/04/29 04:13:48;;;;;;;5.57;4.22;;;13.00;99.90;;;15.82;60.28;97312.03;5031116;28;20045;-36
2023/04/29 04:16:17;;;;;;;6.82;4.55;;;12.90;99.90;;;15.80;60.31;97316.78;5029405;28;20501;-37
2023/04/29 04:18:44;;;;;;;7.13;4.20;;;12.90;99.90;;;15.77;60.30;97315.34;5030435;28;20053;-37
2023/04/29 04:21:12;;;;;;;6.18;4.57;;;12.90;99.90;;;15.68;60.70;97336.13;5029531;28;20049;-37
2023/04/29 04:23:43;;;;;;;6.28;5.65;;;12.90;99.90;;;15.74;60.60;97339.88;5030045;28;20497;-36
2023/04/29 04:26:14;;;;;;;5.00;4.45;;;12.90;99.90;;;15.72;60.72;97334.72;5030007;28;20057;-37
2023/04/29 04:28:54;;;;;;;6.00;5.20;;;12.80;99.90;;;15.69;60.76;97336.97;5030039;28;20424;-37
2023/04/29 04:31:33;;;;;;;7.07;4.70;;;12.80;99.90;;;15.65;61.12;97344.56;5022734;28;20058;-37
2023/04/29 04:34:01;;;;;;;6.53;5.90;;;12.70;99.90;;;15.64;61.30;97350.13;5031110;28;20500;-37
2023/04/29 04:36:31;;;;;;;6.53;4.97;;;12.70;99.90;;;15.61;61.21;97356.75;5029320;28;20072;-37
2023/04/29 04:38:59;;;;;;;6.22;5.22;;;12.60;99.90;;;15.61;61.49;97354.06;5012648;28;20060;-37
2023/04/29 04:41:26;;;;;;;6.65;5.30;;;12.70;99.90;;;15.65;61.28;97352.63;5029582;28;20056;-37
2023/04/29 04:43:54;;;;;;;5.28;4.65;;;12.70;99.90;;;15.70;61.29;97350.19;5030525;28;20049;-37
2023/04/29 04:46:42;;;;;;;5.28;4.60;;;12.80;99.90;;;15.68;61.63;97362.97;5023961;28;20053;-37
2023/04/29 04:49:16;;;;;;;6.38;4.80;;;12.80;99.90;;;15.63;61.76;97362.72;5030049;28;20405;-37
2023/04/29 04:51:50;;;;;;;5.95;4.60;;;12.70;99.90;;;15.52;62.40;97361.44;5030233;28;20045;-37
2023/04/29 04:54:18;;;;;;;5.10;4.30;;;12.70;99.90;;;15.60;62.27;97365.00;5029500;28;20655;-37
2023/04/29 04:56:51;;;;;;;5.13;4.03;;;12.80;99.90;;;15.60;62.31;97368.50;5029453;28;20068;-37
2023/04/29 04:59:18;;;;;;;5.32;4.20;;;12.80;99.90;;;15.45;62.87;97371.34;5029692;28;20056;-37
2023/04/29 05:01:46;;;;;;;3.75;3.38;;;12.80;99.90;;;15.67;62.20;97371.22;5029640;28;20053;-37
2023/04/29 05:04:14;;;;;;;5.53;4.50;;;12.80;99.90;;;15.71;62.04;97370.59;5029252;28;20057;-37
2023/04/29 05:06:42;;;;;;;4.95;4.13;;;12.90;99.90;;;15.50;62.85;97386.81;5028384;28;20049;-37
2023/04/29 05:09:09;;;;;;;7.03;6.32;;;12.80;99.90;;;15.56;62.63;97392.19;5029872;28;20417;-37
2023/04/29 05:11:37;;;;;;;4.47;3.88;;;12.80;99.90;;;15.70;62.20;97386.91;5029661;28;20049;-37
2023/04/29 05:14:09;;;;;;;6.78;5.28;;;12.90;99.90;;;15.45;63.02;97397.31;5013872;28;20045;-37
2023/04/29 05:16:37;;;;;;;5.60;5.03;;;12.80;99.90;;;15.61;62.53;97405.03;5029293;28;20353;-37
2023/04/29 05:19:04;;;;;;;4.80;3.90;;;12.90;99.90;;;15.63;62.67;97400.31;5030671;28;20046;-37
2023/04/29 05:21:36;;;;;;;7.03;5.10;;;12.90;99.90;;;15.69;62.42;97410.22;5029906;28;20053;-37
2023/04/29 05:24:05;;;;;;;6.38;5.05;;;12.90;99.90;;;15.88;62.11;97416.75;5029289;28;20050;-37
2023/04/29 05:26:32;;;;;;;5.25;4.20;;;13.00;99.90;;;15.87;62.09;97408.91;5030263;28;20038;-37
2023/04/29 05:29:01;;;;;;;6.43;4.82;;;13.10;99.90;;;15.94;61.94;97417.81;5029491;28;20045;-37
2023/04/29 05:31:34;;;;;;;5.75;5.15;;;13.10;99.90;;;15.99;61.63;97417.19;5013458;28;20537;-36
2023/04/29 05:34:04;;;;;;;7.20;4.55;;;13.10;99.90;;;15.89;61.88;97413.03;5029226;28;20045;-36
2023/04/29 05:36:32;;;;;;;8.10;5.07;;;13.10;99.90;;;15.90;61.98;97422.75;5012228;28;20520;-36
2023/04/29 05:38:59;;;;;;;7.03;5.28;;;13.10;99.90;;;16.03;61.71;97424.66;5028866;28;20045;-36
2023/04/29 05:41:27;;;;;;;6.38;4.75;;;13.10;99.90;;;16.03;61.48;97430.03;5029281;28;20045;-36
2023/04/29 05:43:54;;;;;;;5.20;4.65;;;13.20;99.90;;;16.11;61.69;97423.63;5030775;28;20054;-37
2023/04/29 05:46:22;;;;;;;6.38;5.22;;;13.20;99.90;;;15.87;62.12;97433.06;5028642;28;20068;-37
2023/04/29 05:48:50;;;;;;;5.80;5.20;;;13.10;99.90;;;15.98;61.67;97432.47;5028962;28;20544;-37
2023/04/29 05:51:18;;;;;;;8.00;5.10;;;13.10;99.90;;;15.98;61.53;97445.09;5031174;28;20046;-37
2023/04/29 05:53:45;;;;;;;9.02;6.32;;;13.00;99.90;;;15.61;62.57;97449.84;5032659;28;20410;-37
2023/04/29 05:56:13;;;;;;;5.50;4.80;;;12.90;99.90;;;15.83;61.93;97447.91;5031906;28;20056;-37
2023/04/29 05:58:40;;;;;;;6.03;4.85;;;13.10;99.90;;;15.93;61.74;97449.19;5032937;28;20053;-37
2023/04/29 06:01:08;;;;;;;5.50;4.82;;;13.10;99.90;;;15.98;61.54;97455.81;5032957;28;20406;-37
2023/04/29 06:03:36;;;;;;;4.85;3.85;;;13.20;99.90;;;16.02;61.30;97459.75;5032623;28;20053;-37
2023/04/29 06:06:36;;;;;;;4.90;4.13;;;13.20;99.90;;;16.08;61.19;97464.31;5031962;28;20452;-37
2023/04/29 06:09:24;;;;;;;5.10;4.30;;;13.20;99.90;;;16.17;61.04;97471.19;5034058;28;20093;-36
2023/04/29 06:11:58;;;;;;;4.70;4.18;;;13.30;99.90;;;16.08;61.11;97467.84;5032511;28;20053;-36
2023/04/29 06:14:26;;;;;;;6.07;5.25;;;13.20;99.90;;;16.21;60.64;97479.69;5031895;28;20049;-36
2023/04/29 06:16:54;;;;;;;4.75;3.75;;;13.30;99.90;;;16.30;60.67;97476.59;5032210;28;20056;-36
2023/04/29 06:19:24;;;;;;;3.55;3.15;;;13.40;99.90;;;16.29;60.36;97480.31;5033495;28;20060;-36
2023/04/29 06:21:52;;;;;;;3.80;3.40;;;13.30;99.90;;;16.26;60.27;97490.63;5032123;28;20050;-36
2023/04/29 06:24:19;;;;;;;4.22;3.05;;;13.30;99.90;;;16.19;60.46;97490.63;5032076;28;20064;-37
2023/04/29 06:26:47;;;;;;;3.75;3.30;;;13.30;99.90;;;16.12;60.37;97493.25;5031585;28;20421;-36
2023/04/29 06:29:15;;;;;;;4.03;3.33;;;13.30;99.90;;;16.06;60.51;97496.75;5031941;28;20540;-36
2023/04/29 06:31:43;;;;;;;3.95;3.30;;;13.20;99.90;;;16.17;60.47;97497.19;5031723;28;20424;-36
2023/04/29 06:34:13;;;;;;;3.90;2.53;;;13.30;99.90;;;16.34;59.89;97503.88;5032103;28;20052;-36
2023/04/29 06:37:15;;;;;;;3.13;2.70;;;13.50;99.90;;;16.30;59.66;97514.22;5032799;28;20046;-36
2023/04/29 06:40:02;;;;;;;4.95;3.30;;;13.40;99.90;;;16.26;59.36;97506.75;5034636;28;20060;-37
2023/04/29 06:42:51;;;;;;;3.50;2.85;;;13.40;99.90;;;16.34;58.89;97515.47;5032156;28;20057;-37
2023/04/29 06:45:47;;;;;;;2.95;2.63;;;13.40;99.90;;;16.10;58.89;97515.97;5032274;28;20046;-36
2023/04/29 06:48:26;;;;;;;4.07;2.90;;;13.30;99.90;;;16.34;59.18;97520.84;5031428;28;20050;-36
2023/04/29 06:50:56;;;;;;;4.38;3.03;;;13.40;99.90;;;16.28;59.16;97518.94;5032876;28;20044;-36
2023/04/29 06:53:24;;;;;;;3.70;3.25;;;13.50;99.90;;;16.16;58.97;97520.53;5032813;28;20049;-36
2023/04/29 06:55:51;;;;;;;3.30;2.63;;;13.40;99.90;;;16.15;58.91;97524.28;5030864;28;20084;-36
2023/04/29 06:58:20;;;;;;;3.80;2.80;;;13.40;99.90;;;16.42;58.46;97532.41;5015322;28;20056;-37
2023/04/29 07:00:49;;;;;;;4.03;3.35;;;13.50;99.90;;;16.41;58.16;97528.91;5030276;28;20049;-38
2023/04/29 07:03:17;;;;;;;3.38;2.75;;;13.50;99.90;;;16.20;58.33;97535.22;5029683;28;20049;-37
2023/04/29 07:05:45;;;;;;;3.97;2.67;;;13.40;99.90;;;16.38;58.08;97537.38;5031355;28;20054;-37
2023/04/29 07:08:13;;;;;;;3.70;3.30;;;13.50;99.90;;;16.30;58.01;97527.66;5031317;28;20049;-37
2023/04/29 07:10:41;;;;;;;4.10;3.25;;;13.50;99.90;;;16.50;57.80;97538.47;5032564;28;20048;-37
2023/04/29 07:13:08;;;;;;;4.30;3.47;;;13.60;99.90;;;16.63;57.53;97534.16;5030763;28;20057;-37
2023/04/29 07:15:36;;;;;;;8.23;3.63;;;13.70;99.90;;;16.77;57.34;97543.91;5031579;28;20045;-37
2023/04/29 07:18:05;;;;;;;4.55;3.17;;;13.80;99.90;;;16.68;57.06;97539.75;5032419;28;20054;-37
2023/04/29 07:20:35;;;;;;;3.42;2.65;;;13.80;99.90;;;16.56;56.78;97550.25;5025064;28;20037;-37
2023/04/29 07:23:04;;;;;;;4.25;3.00;;;13.70;99.90;;;16.67;56.69;97555.06;5031398;28;20069;-37
2023/04/29 07:25:32;;;;;;;3.58;3.08;;;13.60;99.90;;;16.66;56.81;97556.06;5014956;28;20068;-37
2023/04/29 07:28:00;;;;;;;4.13;3.30;;;13.60;99.90;;;16.57;56.83;97554.59;5014089;28;20049;-37
2023/04/29 07:30:27;;;;;;;5.40;3.38;;;13.50;99.90;;;16.58;56.93;97558.13;5031358;28;20045;-37
2023/04/29 07:32:55;;;;;;;4.13;3.15;;;13.60;99.90;;;16.67;56.36;97559.59;5030469;28;20049;-37
2023/04/29 07:35:24;;;;;;;3.22;2.47;;;13.70;99.90;;;16.51;56.36;97563.47;5031658;28;20040;-37
2023/04/29 07:37:51;;;;;;;5.13;2.60;;;13.60;99.90;;;16.57;56.69;97565.34;5031885;28;20052;-37
2023/04/29 07:40:19;;;;;;;4.40;2.92;;;13.70;99.90;;;16.52;56.78;97565.94;5031054;28;20052;-37
2023/04/29 07:42:47;;;;;;;4.93;3.38;;;13.60;99.90;;;16.34;57.07;97571.88;5030419;28;20049;-37
2023/04/29 07:45:15;;;;;;;3.45;2.80;;;13.50;99.90;;;16.50;56.48;97573.38;5030286;28;20060;-37
2023/04/29 07:47:44;;;;;;;4.03;2.60;;;13.50;99.90;;;16.27;56.47;97562.94;5030761;28;20050;-37
2023/04/29 07:50:12;;;;;;;2.47;2.28;;;13.40;99.90;;;16.18;56.64;97572.19;5030873;28;20068;-37
2023/04/29 07:52:39;;;;;;;3.00;2.70;;;13.30;99.90;;;15.94;57.22;97571.66;5030819;28;20053;-37
2023/04/29 07:55:08;;;;;;;3.78;2.72;;;13.20;99.90;;;16.12;57.28;97575.69;5031461;28;20041;-37
2023/04/29 07:57:36;;;;;;;2.92;2.40;;;13.20;99.90;;;16.24;56.58;97581.31;5029861;28;20405;-37
2023/04/29 08:00:04;;;;;;;2.35;2.13;;;13.30;99.90;;;16.01;56.81;97585.09;5031676;28;20413;-37
2023/04/29 08:02:41;;;;;;;2.95;2.58;;;13.20;99.90;;;16.00;57.07;97579.97;5025961;28;20045;-37
2023/04/29 08:05:11;;;;;;;3.83;2.50;;;13.10;99.90;;;16.11;57.12;97582.06;5029251;28;20057;-37
2023/04/29 08:07:39;;;;;;;4.13;2.80;;;13.20;99.90;;;15.98;57.32;97588.19;5028787;28;20296;-37
2023/04/29 08:10:07;;;;;;;3.05;2.60;;;13.20;99.90;;;15.98;56.95;97588.19;5031515;28;20044;-37
2023/04/29 08:12:37;;;;;;;6.07;3.00;;;13.10;99.90;;;16.07;56.65;97594.22;5022830;28;20053;-37
2023/04/29 08:15:05;;;;;;;5.03;3.83;;;13.20;99.90;;;16.25;56.50;97585.69;5029553;28;20046;-37
2023/04/29 08:17:36;;;;;;;3.58;2.95;;;13.40;99.90;;;16.10;56.72;97588.47;5023473;28;20040;-37
2023/04/29 08:20:06;;;;;;;4.47;3.10;;;13.30;99.90;;;16.00;56.46;97590.69;5029783;28;20053;-37
2023/04/29 08:22:33;;;;;;;5.50;3.60;;;13.20;99.90;;;16.22;56.31;97600.31;5031136;28;20064;-37
2023/04/29 08:25:03;;;;;;;3.80;3.20;;;13.30;99.90;;;16.09;56.47;97597.53;5031105;28;20041;-37
2023/04/29 08:27:31;;;;;;;3.95;3.05;;;13.30;99.90;;;16.23;56.60;97606.53;5030901;28;20053;-37
2023/04/29 08:29:59;;;;;;;3.80;3.33;;;13.40;99.90;;;16.32;56.28;97613.38;5031142;28;20501;-37
2023/04/29 08:32:26;;;;;;;9.98;4.18;;;13.50;99.90;;;16.35;55.72;97610.31;5030719;28;20052;-37
2023/04/29 08:34:54;;;;;;;7.95;3.58;;;13.60;99.90;;;16.17;56.06;97604.63;5031195;28;20034;-37
2023/04/29 08:37:22;;;;;;;4.55;3.33;;;13.40;99.90;;;16.38;55.87;97603.69;5030712;28;20289;-38
2023/04/29 08:39:49;;;;;;;6.07;3.22;;;13.50;99.90;;;16.33;55.74;97607.00;5030917;28;20053;-37
2023/04/29 08:42:33;;;;;;;3.50;2.70;;;13.50;99.90;;;16.11;55.92;97603.56;5030559;28;20052;-37
2023/04/29 08:45:02;;;;;;;3.47;3.13;;;13.30;99.90;;;16.16;55.57;97611.84;5029336;28;20053;-37
2023/04/29 08:47:31;;;;;;;3.78;3.22;;;13.30;99.90;;;16.31;55.65;97614.44;5030487;28;20429;-37
2023/04/29 08:50:04;;;;;;;3.97;3.45;;;13.40;99.90;;;16.35;55.62;97610.31;5030812;28;20424;-37
2023/04/29 08:52:32;;;;;;;5.13;3.78;;;13.50;99.90;;;16.41;55.72;97612.19;5030826;28;20048;-37
2023/04/29 08:55:04;;;;;;;3.75;3.35;;;13.50;99.90;;;16.27;55.58;97614.00;5029538;28;20042;-37
2023/04/29 08:57:38;;;;;;;6.65;4.20;;;13.50;99.90;;;16.37;55.25;97612.81;5030907;28;20045;-37
2023/04/29 09:00:10;;;;;;;4.53;3.45;;;13.50;99.90;;;16.49;54.48;97611.19;5030543;28;20052;-37
2023/04/29 09:02:52;;;;;;;4.88;3.42;;;13.60;99.90;;;16.24;54.56;97611.69;5029621;28;20049;-37
2023/04/29 09:05:20;;;;;;;6.32;3.53;;;13.60;99.90;;;16.16;54.80;97619.91;5030491;28;20057;-37
2023/04/29 09:07:50;;;;;;;4.93;3.40;;;13.50;99.90;;;16.42;54.85;97618.41;5028600;28;20498;-37
2023/04/29 09:10:18;;;;;;;5.00;3.63;;;13.60;99.90;;;16.48;54.82;97617.63;5029156;28;20056;-37
2023/04/29 09:12:46;;;;;;;4.15;3.58;;;13.80;99.90;;;16.37;54.59;97623.56;5030603;28;20045;-37
2023/04/29 09:15:13;;;;;;;5.22;3.63;;;13.70;99.90;;;16.51;54.24;97620.72;5030498;28;20049;-37
2023/04/29 09:17:46;;;;;;;4.80;4.22;;;13.70;99.90;;;16.56;54.82;97616.63;5030419;28;20092;-36
2023/04/29 09:20:20;;;;;;;4.63;3.55;;;13.80;99.90;;;16.60;54.40;97617.88;5030626;28;20057;-36
2023/04/29 09:22:57;;;;;;;5.80;3.40;;;13.90;99.90;;;16.79;53.83;97622.50;5030675;28;20513;-36
2023/04/29 09:25:26;;;;;;;4.90;3.25;;;14.10;99.90;;;17.01;53.91;97617.00;5030895;28;20056;-36
2023/04/29 09:27:54;;;;;;;4.35;3.17;;;14.20;99.90;;;17.04;53.14;97625.50;5034170;28;20044;-36
2023/04/29 09:30:22;;;;;;;4.93;3.28;;;14.20;99.90;;;17.13;53.42;97618.06;5032797;28;20045;-36
2023/04/29 09:33:09;;;;;;;4.40;2.83;;;14.30;99.90;;;17.03;53.07;97625.72;5034164;28;20053;-36
2023/04/29 09:35:39;;;;;;;3.78;3.00;;;14.30;99.90;;;17.13;52.74;97624.25;5033911;28;20048;-36
2023/04/29 09:38:13;;;;;;;6.65;3.33;;;14.30;99.90;;;17.25;52.64;97623.69;5033947;28;20046;-36
2023/04/29 09:40:42;;;;;;;3.13;2.35;;;14.40;99.90;;;17.26;52.09;97623.47;5033037;28;20049;-36
2023/04/29 09:43:25;;;;;;;4.18;2.97;;;14.40;99.90;;;17.01;51.70;97628.59;5034020;28;20041;-36
2023/04/29 09:45:53;;;;;;;6.40;3.13;;;14.30;99.90;;;16.42;53.25;97634.50;5033900;28;20045;-36
2023/04/29 09:48:21;;;;;;;3.55;3.25;;;13.90;99.90;;;16.68;53.19;97631.13;5032517;28;20052;-36
2023/04/29 09:51:03;;;;;;;3.40;2.78;;;13.90;99.90;;;16.48;53.40;97639.94;5033972;28;20038;-36
2023/04/29 09:53:31;;;;;;;3.80;2.80;;;13.80;99.90;;;16.30;53.46;97636.94;5033724;28;20045;-37
2023/04/29 09:56:02;;;;;;;4.45;3.20;;;13.70;99.90;;;16.20;53.91;97639.97;5033806;28;20042;-37
2023/04/29 09:58:35;;;;;;;3.10;2.80;;;13.60;99.90;;;16.21;53.94;97647.03;5033858;28;20037;-37
2023/04/29 10:01:04;;;;;;;;;;;13.60;99.90;;;16.32;54.04;97638.41;5034273;28;20045;-37
2023/04/29 10:03:41;;;;;;;4.88;3.25;;;13.70;99.90;;;16.25;53.43;97637.53;5029779;28;19921;-37
2023/04/29 10:06:09;;;;;;;4.20;3.13;;;13.70;99.90;;;16.63;53.33;97638.97;5033097;28;20416;-37
2023/04/29 10:08:40;;;;;;;4.90;3.58;;;13.90;99.90;;;16.70;53.52;97646.03;5016444;28;20054;-37
2023/04/29 10:11:10;;;;;;;3.80;3.20;;;14.10;99.90;;;16.72;53.42;97651.22;5032498;28;20045;-37
2023/04/29 10:13:41;;;;;;;4.80;3.75;;;14.10;99.90;;;16.77;52.72;97648.75;5032114;28;20068;-37
2023/04/29 10:16:28;;;;;;;6.75;3.63;;;14.10;99.90;;;16.54;52.95;97647.19;5033159;28;20033;-37
2023/04/29 10:19:02;;;;;;;4.43;3.60;;;14.00;99.90;;;16.65;53.29;97645.81;5027712;28;20053;-37
2023/04/29 10:21:30;;;;;;;4.13;3.72;;;14.10;99.90;;;16.81;52.90;97646.47;5032267;28;20046;-37
2023/04/29 10:24:00;;;;;;;5.90;3.60;;;14.10;99.90;;;16.64;52.61;97646.00;5033379;28;20052;-37
2023/04/29 10:26:30;;;;;;;3.63;2.88;;;14.00;99.90;;;16.87;52.69;97646.53;5015504;28;20056;-37
2023/04/29 10:28:59;;;;;;;4.43;3.25;;;14.10;99.90;;;16.96;52.24;97647.19;5033247;28;20041;-37
2023/04/29 10:31:28;;;;;;;3.63;2.88;;;14.30;99.90;;;16.92;51.84;97643.25;5033133;28;20037;-37
2023/04/29 10:33:57;;;;;;;4.90;3.63;;;14.30;99.90;;;17.15;51.84;97642.91;5032811;28;20497;-37
2023/04/29 10:36:29;;;;;;;4.28;3.33;;;14.40;99.90;;;17.23;51.12;97634.63;5031585;28;20453;-37
2023/04/29 10:39:00;;;;;;;4.03;3.10;;;14.50;99.90;;;16.97;51.05;97637.28;5033132;28;20401;-37